VJT1 EDDN-EDDB
Flight info
| Callsign | VJT1 |
|---|---|
| Flight time | N/A |
| Altitude | 31000 |
| Route | ERETO1G/28 ERETO DCT TABAT T202 MILGU/N0440F270 T202 ATGUP ATGUP1R |
| Aircraft | CL60/M-SBDE1E2E3FGHIJ1J4J5J7M3RWXYZ/LB1V1D1 |
Departure
| Time | 2026-04-27 15:10 |
|---|---|
| Airport | Nuremberg Airport (EDDN) |
Arrival
| Time | N/A |
|---|---|
| Airport | Berlin Brandenburg Airport (EDDB) |
| Time | Latitude | Longitude | Altitude | Speed | Heading |
|---|---|---|---|---|---|
| 2026-04-27 14:49 | 49.49497 | 11.06802 | 1050 ft | 0 kts | 8° |
| 2026-04-27 15:03 | 49.49510 | 11.06805 | 1050 ft | 3 kts | 6° |
| 2026-04-27 15:03 | 49.49536 | 11.06840 | 1050 ft | 7 kts | 79° |
| 2026-04-27 15:03 | 49.49528 | 11.06929 | 1050 ft | 9 kts | 96° |
| 2026-04-27 15:03 | 49.49517 | 11.07050 | 1050 ft | 12 kts | 96° |
| 2026-04-27 15:04 | 49.49507 | 11.07170 | 1050 ft | 8 kts | 83° |
| 2026-04-27 15:04 | 49.49564 | 11.07201 | 1050 ft | 10 kts | 3° |
| 2026-04-27 15:04 | 49.49620 | 11.07221 | 1050 ft | 3 kts | 11° |
| 2026-04-27 15:04 | 49.49635 | 11.07232 | 1050 ft | 1 kts | 62° |
| 2026-04-27 15:05 | 49.49635 | 11.07255 | 1050 ft | 5 kts | 95° |
| 2026-04-27 15:05 | 49.49625 | 11.07353 | 1050 ft | 4 kts | 96° |
| 2026-04-27 15:05 | 49.49619 | 11.07439 | 1050 ft | 13 kts | 98° |
| 2026-04-27 15:05 | 49.49601 | 11.07621 | 1050 ft | 15 kts | 95° |
| 2026-04-27 15:06 | 49.49581 | 11.07818 | 1050 ft | 19 kts | 100° |
| 2026-04-27 15:06 | 49.49564 | 11.07992 | 1050 ft | 14 kts | 98° |
| 2026-04-27 15:06 | 49.49548 | 11.08161 | 1050 ft | 17 kts | 97° |
| 2026-04-27 15:06 | 49.49535 | 11.08301 | 1050 ft | 11 kts | 88° |
| 2026-04-27 15:07 | 49.49583 | 11.08363 | 1050 ft | 7 kts | 4° |
| 2026-04-27 15:07 | 49.49619 | 11.08427 | 1050 ft | 10 kts | 107° |
| 2026-04-27 15:07 | 49.49604 | 11.08557 | 1050 ft | 13 kts | 98° |
| 2026-04-27 15:07 | 49.49588 | 11.08717 | 1050 ft | 16 kts | 99° |
| 2026-04-27 15:08 | 49.49571 | 11.08890 | 1050 ft | 16 kts | 100° |
| 2026-04-27 15:08 | 49.49553 | 11.09081 | 1050 ft | 19 kts | 98° |
| 2026-04-27 15:08 | 49.49533 | 11.09285 | 1050 ft | 11 kts | 100° |
| 2026-04-27 15:08 | 49.49558 | 11.09412 | 1050 ft | 14 kts | 49° |
| 2026-04-27 15:09 | 49.49606 | 11.09516 | 1050 ft | 7 kts | 57° |
| 2026-04-27 15:09 | 49.49654 | 11.09572 | 1050 ft | 10 kts | 13° |
| 2026-04-27 15:09 | 49.49701 | 11.09557 | 1050 ft | 2 kts | 281° |
| 2026-04-27 15:09 | 49.49703 | 11.09505 | 1050 ft | 12 kts | 277° |
| 2026-04-27 15:10 | 49.49781 | 11.08661 | 1050 ft | 142 kts | 277° |
| 2026-04-27 15:10 | 49.49947 | 11.06856 | 1881 ft | 177 kts | 276° |
| 2026-04-27 15:10 | 49.50095 | 11.05154 | 2860 ft | 161 kts | 275° |
| 2026-04-27 15:10 | 49.50193 | 11.03514 | 2981 ft | 166 kts | 274° |
| 2026-04-27 15:11 | 49.50340 | 11.01583 | 3844 ft | 192 kts | 275° |
| 2026-04-27 15:11 | 49.50513 | 10.99584 | 5107 ft | 201 kts | 274° |
| 2026-04-27 15:11 | 49.50700 | 10.97260 | 5818 ft | 241 kts | 276° |
| 2026-04-27 15:11 | 49.51228 | 10.94695 | 6713 ft | 263 kts | 297° |
| 2026-04-27 15:12 | 49.52446 | 10.92566 | 7044 ft | 268 kts | 324° |
| 2026-04-27 15:12 | 49.54153 | 10.91660 | 7240 ft | 261 kts | 354° |
| 2026-04-27 15:12 | 49.55964 | 10.91716 | 7517 ft | 256 kts | 359° |
| 2026-04-27 15:12 | 49.57746 | 10.91808 | 7810 ft | 255 kts | 359° |
| 2026-04-27 15:13 | 49.59548 | 10.91885 | 8108 ft | 278 kts | 358° |
| 2026-04-27 15:13 | 49.61623 | 10.91944 | 8563 ft | 309 kts | 358° |
| 2026-04-27 15:13 | 49.63841 | 10.91979 | 9153 ft | 333 kts | 355° |
| 2026-04-27 15:13 | 49.66232 | 10.91873 | 9768 ft | 361 kts | 354° |
| 2026-04-27 15:14 | 49.68725 | 10.92378 | 10394 ft | 359 kts | 16° |
| 2026-04-27 15:14 | 49.70962 | 10.93580 | 12274 ft | 343 kts | 11° |
| 2026-04-27 15:14 | 49.73249 | 10.95150 | 12739 ft | 376 kts | 33° |
| 2026-04-27 15:14 | 49.75286 | 10.97770 | 13618 ft | 384 kts | 36° |
| 2026-04-27 15:15 | 49.77245 | 11.00402 | 14685 ft | 373 kts | 38° |
| 2026-04-27 15:15 | 49.79131 | 11.03349 | 14475 ft | 383 kts | 39° |
| 2026-04-27 15:15 | 49.81260 | 11.05476 | 14134 ft | 356 kts | 27° |
| 2026-04-27 15:15 | 49.83002 | 11.08014 | 14418 ft | 355 kts | 49° |
| 2026-04-27 15:16 | 49.84193 | 11.11451 | 14675 ft | 368 kts | 61° |
| 2026-04-27 15:16 | 49.85317 | 11.15034 | 15319 ft | 369 kts | 58° |
| 2026-04-27 15:16 | 49.86496 | 11.18624 | 15970 ft | 383 kts | 57° |
| 2026-04-27 15:16 | 49.87683 | 11.22399 | 16592 ft | 398 kts | 63° |
| 2026-04-27 15:17 | 49.88757 | 11.26414 | 17213 ft | 399 kts | 62° |
| 2026-04-27 15:17 | 49.89875 | 11.30331 | 17923 ft | 399 kts | 63° |
| 2026-04-27 15:17 | 49.91034 | 11.34253 | 18590 ft | 402 kts | 55° |
| 2026-04-27 15:17 | 49.92720 | 11.37645 | 19259 ft | 399 kts | 38° |
| 2026-04-27 15:18 | 49.94939 | 11.40178 | 20015 ft | 393 kts | 22° |
| 2026-04-27 15:18 | 49.97463 | 11.41585 | 20846 ft | 387 kts | 3° |
| 2026-04-27 15:18 | 50.00146 | 11.42075 | 21626 ft | 391 kts | 358° |
| 2026-04-27 15:18 | 50.01246 | 11.42203 | 21947 ft | 392 kts | 358° |
| 2026-04-27 15:19 | 50.02175 | 11.42339 | 22190 ft | 395 kts | 359° |
| 2026-04-27 15:20 | 50.04961 | 11.43065 | 22723 ft | 409 kts | 5° |
| 2026-04-27 15:20 | 50.07737 | 11.43970 | 23278 ft | 409 kts | 2° |
| 2026-04-27 15:20 | 50.10488 | 11.44237 | 23995 ft | 395 kts | 343° |
| 2026-04-27 15:20 | 50.13042 | 11.43833 | 24442 ft | 393 kts | 353° |
| 2026-04-27 15:21 | 50.15677 | 11.44217 | 25810 ft | 385 kts | 6° |
| 2026-04-27 15:21 | 50.18286 | 11.45392 | 26450 ft | 388 kts | 3° |
| 2026-04-27 15:21 | 50.20900 | 11.46101 | 27159 ft | 384 kts | 358° |
| 2026-04-27 15:21 | 50.23547 | 11.46538 | 27825 ft | 385 kts | 357° |
| 2026-04-27 15:22 | 50.26230 | 11.46958 | 28471 ft | 387 kts | 356° |
| 2026-04-27 15:22 | 50.28899 | 11.47387 | 29086 ft | 388 kts | 357° |
| 2026-04-27 15:22 | 50.31586 | 11.47845 | 29697 ft | 389 kts | 357° |
| 2026-04-27 15:22 | 50.34265 | 11.48316 | 30300 ft | 390 kts | 357° |
| 2026-04-27 15:23 | 50.36959 | 11.48803 | 30875 ft | 391 kts | 358° |
| 2026-04-27 15:23 | 50.39676 | 11.49301 | 31145 ft | 401 kts | 358° |
| 2026-04-27 15:23 | 50.42501 | 11.49810 | 31187 ft | 417 kts | 357° |
| 2026-04-27 15:23 | 50.45478 | 11.50342 | 31203 ft | 432 kts | 358° |
| 2026-04-27 15:24 | 50.48512 | 11.50884 | 31201 ft | 447 kts | 358° |
| 2026-04-27 15:24 | 50.51624 | 11.51550 | 31189 ft | 464 kts | 4° |
| 2026-04-27 15:24 | 50.54749 | 11.53082 | 31423 ft | 476 kts | 13° |
| 2026-04-27 15:24 | 50.57816 | 11.55389 | 30427 ft | 495 kts | 30° |
| 2026-04-27 15:25 | 50.60295 | 11.59072 | 30725 ft | 483 kts | 37° |
| 2026-04-27 15:25 | 50.62759 | 11.62722 | 30112 ft | 502 kts | 35° |
| 2026-04-27 15:25 | 50.65329 | 11.66313 | 29571 ft | 485 kts | 34° |
| 2026-04-27 15:25 | 50.67754 | 11.69783 | 30314 ft | 459 kts | 33° |
| 2026-04-27 15:26 | 50.70272 | 11.72740 | 30933 ft | 453 kts | 24° |
| 2026-04-27 15:26 | 50.73025 | 11.75237 | 31092 ft | 461 kts | 21° |
| 2026-04-27 15:26 | 50.75918 | 11.77628 | 30892 ft | 479 kts | 21° |
| 2026-04-27 15:26 | 50.78861 | 11.80215 | 30396 ft | 484 kts | 23° |
| 2026-04-27 15:27 | 50.81667 | 11.82938 | 31180 ft | 465 kts | 24° |
| 2026-04-27 15:27 | 50.84350 | 11.85585 | 32043 ft | 458 kts | 24° |
| 2026-04-27 15:27 | 50.86856 | 11.88192 | 31753 ft | 478 kts | 26° |
| 2026-04-27 15:28 | 50.87181 | 11.88524 | 31658 ft | 481 kts | 25° |